createdAt,value
2018-11-27T00:00:35.506Z,96.00
2018-11-27T00:03:06.259Z,96.10
2018-11-27T00:05:35.889Z,96.00
2018-11-27T00:08:04.967Z,96.10
2018-11-27T00:10:35.143Z,96.10
2018-11-27T00:13:04.879Z,96.20
2018-11-27T00:15:34.261Z,96.30
2018-11-27T00:18:03.797Z,96.30
2018-11-27T00:20:33.019Z,96.40
2018-11-27T00:23:02.648Z,96.50
2018-11-27T00:25:31.601Z,96.80
2018-11-27T00:28:01.124Z,97.00
2018-11-27T00:30:30.429Z,97.00
2018-11-27T00:32:59.577Z,96.60
2018-11-27T00:35:28.383Z,96.40
2018-11-27T00:37:57.288Z,96.30
2018-11-27T00:40:26.704Z,96.20
2018-11-27T00:42:56.327Z,96.20
2018-11-27T00:45:26.011Z,96.20
2018-11-27T00:47:54.831Z,96.20
2018-11-27T00:50:24.910Z,96.40
2018-11-27T00:52:54.426Z,96.40
2018-11-27T00:55:23.379Z,96.50
2018-11-27T00:57:53.183Z,96.50
2018-11-27T01:00:23.267Z,96.60
2018-11-27T01:02:53.067Z,96.70
2018-11-27T01:05:23.782Z,97.10
2018-11-27T01:07:52.728Z,97.40
2018-11-27T01:10:22.788Z,97.70
2018-11-27T01:12:52.003Z,97.70
2018-11-27T01:15:20.904Z,97.60
2018-11-27T01:17:52.734Z,97.50
2018-11-27T01:20:22.063Z,97.40
2018-11-27T01:22:52.832Z,97.40
2018-11-27T01:25:22.009Z,97.00
2018-11-27T01:27:51.458Z,96.70
2018-11-27T01:30:22.194Z,96.60
2018-11-27T01:32:51.279Z,96.50
2018-11-27T01:35:21.864Z,96.60
2018-11-27T01:37:52.453Z,96.80
2018-11-27T01:40:22.546Z,97.00
2018-11-27T01:42:53.288Z,97.10
2018-11-27T01:45:23.363Z,97.10
2018-11-27T01:47:52.583Z,97.10
2018-11-27T01:50:21.939Z,97.00
2018-11-27T01:52:51.206Z,96.80
2018-11-27T01:55:21.315Z,96.60
2018-11-27T01:57:50.471Z,96.40
2018-11-27T02:00:25.412Z,96.40
2018-11-27T02:02:55.595Z,96.40
2018-11-27T02:05:24.995Z,96.50
2018-11-27T02:07:54.066Z,96.50
2018-11-27T02:10:24.758Z,96.70
2018-11-27T02:12:54.748Z,96.50
2018-11-27T02:15:28.515Z,96.50
2018-11-27T02:17:58.224Z,96.50
2018-11-27T02:20:27.259Z,96.50
2018-11-27T02:22:56.431Z,96.60
2018-11-27T02:25:28.651Z,96.90
2018-11-27T02:27:58.086Z,97.00
2018-11-27T02:30:27.691Z,96.90
2018-11-27T02:32:57.601Z,96.70
2018-11-27T02:35:27.356Z,96.60
2018-11-27T02:37:57.778Z,96.60
2018-11-27T02:40:27.371Z,96.60
2018-11-27T02:42:56.345Z,96.60
2018-11-27T02:45:26.107Z,96.70
2018-11-27T02:47:55.450Z,96.70
2018-11-27T02:50:26.098Z,96.70
2018-11-27T02:52:54.955Z,96.80
2018-11-27T02:55:24.850Z,97.00
2018-11-27T02:57:53.655Z,97.20
2018-11-27T03:00:24.303Z,97.40
2018-11-27T03:02:53.372Z,97.60
2018-11-27T03:05:27.030Z,97.80
2018-11-27T03:07:56.175Z,97.80
2018-11-27T03:10:25.060Z,97.60
2018-11-27T03:12:54.362Z,97.30
2018-11-27T03:15:24.094Z,97.10
2018-11-27T03:17:53.046Z,97.10
2018-11-27T03:20:22.173Z,97.10
2018-11-27T03:22:50.981Z,97.10
2018-11-27T03:25:20.788Z,97.20
2018-11-27T03:27:53.998Z,97.40
2018-11-27T03:30:26.115Z,97.50
2018-11-27T03:32:55.280Z,97.50
2018-11-27T03:35:25.517Z,97.50
2018-11-27T03:37:55.039Z,97.40
2018-11-27T03:40:27.589Z,97.30
2018-11-27T03:42:56.538Z,97.20
2018-11-27T03:45:25.923Z,97.20
2018-11-27T03:47:55.247Z,97.10
2018-11-27T03:50:28.678Z,97.10
2018-11-27T03:52:57.971Z,97.10
2018-11-27T03:55:27.239Z,97.10
2018-11-27T03:57:57.093Z,97.00
2018-11-27T04:00:28.140Z,97.00
2018-11-27T04:03:10.822Z,97.20
2018-11-27T04:05:40.147Z,97.40
2018-11-27T04:08:10.362Z,97.50
2018-11-27T04:10:40.587Z,97.70
2018-11-27T04:13:09.696Z,97.70
2018-11-27T04:15:39.413Z,97.80
2018-11-27T04:18:08.467Z,97.80
2018-11-27T04:20:37.918Z,97.90
2018-11-27T04:23:08.712Z,97.90
2018-11-27T04:25:37.951Z,97.80
2018-11-27T04:28:07.498Z,97.70
2018-11-27T04:30:36.367Z,97.60
2018-11-27T04:33:05.319Z,97.70
2018-11-27T04:35:34.584Z,97.70
2018-11-27T04:38:03.464Z,97.60
2018-11-27T04:40:32.989Z,97.60
2018-11-27T04:43:01.773Z,97.60
2018-11-27T04:45:30.977Z,97.70
2018-11-27T04:48:00.148Z,97.50
2018-11-27T04:50:28.976Z,97.50
2018-11-27T04:52:58.377Z,97.50
2018-11-27T04:55:27.608Z,97.50
2018-11-27T04:57:56.443Z,97.50
2018-11-27T05:00:26.323Z,97.70
2018-11-27T05:02:55.760Z,97.60
2018-11-27T05:05:25.467Z,97.60
2018-11-27T05:07:54.276Z,97.50
2018-11-27T05:10:24.584Z,97.50
2018-11-27T05:12:53.724Z,97.50
2018-11-27T05:15:24.411Z,97.50
2018-11-27T05:17:55.628Z,97.60
2018-11-27T05:20:24.766Z,97.50
2018-11-27T05:22:54.008Z,97.70
2018-11-27T05:25:23.378Z,97.50
2018-11-27T05:27:54.560Z,97.60
2018-11-27T05:30:28.470Z,97.50
2018-11-27T05:32:56.913Z,97.70
2018-11-27T05:35:29.179Z,97.50
2018-11-27T05:37:59.143Z,97.50
2018-11-27T05:40:28.159Z,97.50
2018-11-27T05:43:02.898Z,97.60
2018-11-27T05:45:32.478Z,97.50
2018-11-27T05:48:01.575Z,97.40
2018-11-27T05:50:31.451Z,97.30
2018-11-27T05:53:00.631Z,97.50
2018-11-27T05:55:29.615Z,97.50
2018-11-27T05:57:58.603Z,97.40
2018-11-27T06:00:28.381Z,97.30
2018-11-27T06:02:58.223Z,97.40
2018-11-27T06:05:27.127Z,97.30
2018-11-27T06:07:56.179Z,97.40
2018-11-27T06:10:25.307Z,97.20
2018-11-27T06:12:54.205Z,97.30
2018-11-27T06:15:24.426Z,97.20
2018-11-27T06:17:56.363Z,97.40
2018-11-27T06:20:25.757Z,97.50
2018-11-27T06:22:55.121Z,97.30
2018-11-27T06:25:27.892Z,97.20
2018-11-27T06:28:03.439Z,97.30
2018-11-27T06:30:33.799Z,97.40
2018-11-27T06:33:02.686Z,97.20
2018-11-27T06:35:39.157Z,97.30
2018-11-27T06:38:08.976Z,97.30
2018-11-27T06:40:38.786Z,97.30
2018-11-27T06:43:10.467Z,97.10
2018-11-27T06:45:40.415Z,97.10
2018-11-27T06:48:09.380Z,97.10
2018-11-27T06:50:38.745Z,97.00
2018-11-27T06:53:11.463Z,97.10
2018-11-27T06:55:40.503Z,97.00
2018-11-27T06:58:09.723Z,97.00
2018-11-27T07:00:39.306Z,97.00
2018-11-27T07:03:19.304Z,97.00
2018-11-27T07:05:48.378Z,97.00
2018-11-27T07:08:17.879Z,97.10
2018-11-27T07:10:47.403Z,97.10
2018-11-27T07:13:19.427Z,97.10
2018-11-27T07:15:50.074Z,97.00
2018-11-27T07:18:19.410Z,97.10
2018-11-27T07:20:48.952Z,97.00
2018-11-27T07:23:18.147Z,96.90
2018-11-27T07:25:48.068Z,97.00
2018-11-27T07:28:17.547Z,96.90
2018-11-27T07:30:47.275Z,97.10
2018-11-27T07:33:16.174Z,97.00
2018-11-27T07:35:45.188Z,96.90
2018-11-27T07:38:14.872Z,96.90
2018-11-27T07:40:43.837Z,96.80
2018-11-27T07:43:13.613Z,96.90
2018-11-27T07:45:42.603Z,96.80
2018-11-27T07:48:12.007Z,96.90
2018-11-27T07:50:41.160Z,97.10
2018-11-27T07:53:10.139Z,97.00
2018-11-27T07:55:39.030Z,97.10
2018-11-27T07:58:08.791Z,97.00
2018-11-27T08:00:37.923Z,97.00
2018-11-27T08:03:07.279Z,96.90
2018-11-27T08:05:40.583Z,96.90
2018-11-27T08:08:11.096Z,96.80
2018-11-27T08:10:40.369Z,96.80
2018-11-27T08:13:10.020Z,96.80
2018-11-27T08:15:39.344Z,96.80
2018-11-27T08:18:09.182Z,96.70
2018-11-27T08:20:38.335Z,96.70
2018-11-27T08:23:08.395Z,96.70
2018-11-27T08:25:37.310Z,96.70
2018-11-27T08:28:07.501Z,96.70
2018-11-27T08:30:37.110Z,96.60
2018-11-27T08:33:11.160Z,96.80
2018-11-27T08:35:40.093Z,96.60
2018-11-27T08:38:09.214Z,96.60
2018-11-27T08:40:38.119Z,96.60
2018-11-27T08:43:08.114Z,96.70
2018-11-27T08:45:37.002Z,96.80
2018-11-27T08:48:06.895Z,96.80
2018-11-27T08:50:36.565Z,96.80
2018-11-27T08:53:07.437Z,96.70
2018-11-27T08:55:39.053Z,96.70
2018-11-27T08:58:11.362Z,96.70
2018-11-27T09:00:40.178Z,96.40
2018-11-27T09:03:09.388Z,96.40
2018-11-27T09:05:38.723Z,96.70
2018-11-27T09:08:08.051Z,96.50
2018-11-27T09:10:37.202Z,96.40
2018-11-27T09:13:07.172Z,96.30
2018-11-27T09:15:36.712Z,96.20
2018-11-27T09:18:15.567Z,96.40
2018-11-27T09:20:44.906Z,96.30
2018-11-27T09:23:14.541Z,96.20
2018-11-27T09:25:43.641Z,96.30
2018-11-27T09:28:13.629Z,96.20
2018-11-27T09:30:42.699Z,96.30
2018-11-27T09:33:11.833Z,96.30
2018-11-27T09:35:41.330Z,96.40
2018-11-27T09:38:11.263Z,96.50
2018-11-27T09:40:40.487Z,96.30
2018-11-27T09:43:09.643Z,96.10
2018-11-27T09:45:39.858Z,96.30
2018-11-27T09:48:09.287Z,96.30
2018-11-27T09:50:38.706Z,96.40
2018-11-27T09:53:12.477Z,96.10
2018-11-27T09:55:41.312Z,96.10
2018-11-27T09:58:10.175Z,96.00
2018-11-27T10:00:39.482Z,96.20
2018-11-27T10:03:16.915Z,96.30
2018-11-27T10:05:46.155Z,96.00
2018-11-27T10:08:15.015Z,96.00
2018-11-27T10:10:44.325Z,96.00
2018-11-27T10:13:13.246Z,96.00
2018-11-27T10:15:42.836Z,96.00
2018-11-27T10:18:12.188Z,96.10
2018-11-27T10:20:42.715Z,96.00
2018-11-27T10:23:13.090Z,96.10
2018-11-27T10:25:42.323Z,96.00
2018-11-27T10:28:11.712Z,95.80
2018-11-27T10:30:41.555Z,95.70
2018-11-27T10:33:11.911Z,95.80
2018-11-27T10:35:44.418Z,95.70
2018-11-27T10:38:13.335Z,95.60
2018-11-27T10:40:42.737Z,95.70
2018-11-27T10:43:11.940Z,95.80
2018-11-27T10:45:40.919Z,95.80
2018-11-27T10:48:09.817Z,95.70
2018-11-27T10:50:39.216Z,95.60
2018-11-27T10:53:10.179Z,95.70
2018-11-27T10:55:39.656Z,95.40
2018-11-27T10:58:09.195Z,95.60
2018-11-27T11:00:45.004Z,95.50
2018-11-27T11:03:44.818Z,95.30
2018-11-27T11:06:13.921Z,95.40
2018-11-27T11:08:43.368Z,95.40
2018-11-27T11:11:12.975Z,95.40
2018-11-27T11:13:41.917Z,95.00
2018-11-27T11:16:11.150Z,94.80
2018-11-27T11:18:40.366Z,94.80
2018-11-27T11:21:09.619Z,95.00
2018-11-27T11:23:38.431Z,94.90
2018-11-27T11:26:07.419Z,94.60
2018-11-27T11:28:36.327Z,94.50
2018-11-27T11:31:06.779Z,94.70
2018-11-27T11:33:35.399Z,94.80
2018-11-27T11:36:04.530Z,94.60
2018-11-27T11:38:35.683Z,94.20
2018-11-27T11:41:05.802Z,94.20
2018-11-27T11:43:34.819Z,94.20
2018-11-27T11:46:03.849Z,94.40
2018-11-27T11:48:34.163Z,94.40
2018-11-27T11:51:04.043Z,94.40
2018-11-27T11:53:32.803Z,94.20
2018-11-27T11:56:01.739Z,93.90
2018-11-27T11:58:30.660Z,94.00
2018-11-27T12:00:59.504Z,94.00
2018-11-27T12:03:29.200Z,93.50
2018-11-27T12:05:58.063Z,93.80
2018-11-27T12:08:27.529Z,94.00
2018-11-27T12:10:56.696Z,94.20
2018-11-27T12:13:25.865Z,94.20
2018-11-27T12:15:54.652Z,94.20
2018-11-27T12:18:23.667Z,94.20
2018-11-27T12:20:52.779Z,94.30
2018-11-27T12:23:21.779Z,94.00
2018-11-27T12:25:51.631Z,94.00
2018-11-27T12:28:20.734Z,93.80
2018-11-27T12:30:50.064Z,93.80
2018-11-27T12:33:18.861Z,93.90
2018-11-27T12:35:47.987Z,93.60
2018-11-27T12:38:17.182Z,93.70
2018-11-27T12:40:47.209Z,93.70
2018-11-27T12:43:16.327Z,93.50
2018-11-27T12:45:45.435Z,93.50
2018-11-27T12:48:14.866Z,93.40
2018-11-27T12:50:47.270Z,93.50
2018-11-27T12:53:17.307Z,93.40
2018-11-27T12:55:48.503Z,93.40
2018-11-27T12:58:17.303Z,93.50
2018-11-27T13:00:46.578Z,93.40
2018-11-27T13:03:15.615Z,93.30
2018-11-27T13:05:45.536Z,92.90
2018-11-27T13:08:17.744Z,93.00
2018-11-27T13:10:46.615Z,93.10
2018-11-27T13:13:15.781Z,93.00
2018-11-27T13:15:45.459Z,93.10
2018-11-27T13:18:14.636Z,93.20
2018-11-27T13:20:43.436Z,93.30
2018-11-27T13:23:12.302Z,93.20
2018-11-27T13:25:41.107Z,93.30
2018-11-27T13:28:12.824Z,93.50
2018-11-27T13:30:48.345Z,93.50
2018-11-27T13:33:25.395Z,93.10
2018-11-27T13:35:54.288Z,93.00
2018-11-27T13:38:23.505Z,93.30
2018-11-27T13:40:52.371Z,93.10
2018-11-27T13:43:27.889Z,93.20
2018-11-27T13:45:58.687Z,93.00
2018-11-27T13:48:27.563Z,93.20
2018-11-27T13:50:56.992Z,93.40
2018-11-27T13:53:26.031Z,93.60
2018-11-27T13:55:54.848Z,93.50
2018-11-27T13:58:23.985Z,93.60
2018-11-27T14:00:53.396Z,93.50
2018-11-27T14:03:22.264Z,93.30
2018-11-27T14:05:51.504Z,93.30
2018-11-27T14:08:20.752Z,93.30
2018-11-27T14:10:50.419Z,93.30
2018-11-27T14:13:19.360Z,93.30
2018-11-27T14:15:49.635Z,93.40
2018-11-27T14:18:18.539Z,93.50
2018-11-27T14:20:48.499Z,93.60
2018-11-27T14:23:17.971Z,93.60
2018-11-27T14:25:47.187Z,93.50
2018-11-27T14:28:16.463Z,93.80
2018-11-27T14:30:45.844Z,93.90
2018-11-27T14:33:15.091Z,93.80
2018-11-27T14:35:44.317Z,93.70
2018-11-27T14:38:13.863Z,93.70
2018-11-27T14:40:43.144Z,93.70
2018-11-27T14:43:12.322Z,93.80
2018-11-27T14:45:41.855Z,93.80
2018-11-27T14:48:10.755Z,93.90
2018-11-27T14:50:40.167Z,93.80
2018-11-27T14:53:09.342Z,93.80
2018-11-27T14:55:38.555Z,94.00
2018-11-27T14:58:08.331Z,94.10
2018-11-27T15:00:37.310Z,94.50
2018-11-27T15:03:06.443Z,94.20
2018-11-27T15:05:37.198Z,94.20
2018-11-27T15:08:08.607Z,94.20
2018-11-27T15:10:38.607Z,94.20
2018-11-27T15:13:08.618Z,94.20
2018-11-27T15:15:37.888Z,94.20
2018-11-27T15:18:07.029Z,94.30
2018-11-27T15:20:36.984Z,94.40
2018-11-27T15:23:05.979Z,94.50
2018-11-27T15:25:35.174Z,94.50
2018-11-27T15:28:04.735Z,94.50
2018-11-27T15:30:35.892Z,94.60
2018-11-27T15:33:05.747Z,94.50
2018-11-27T15:35:35.092Z,94.60
2018-11-27T15:38:04.715Z,94.50
2018-11-27T15:40:33.664Z,94.60
2018-11-27T15:43:03.504Z,94.70
2018-11-27T15:45:34.422Z,94.80
2018-11-27T15:48:04.691Z,94.90
2018-11-27T15:50:33.993Z,94.90
2018-11-27T15:53:03.096Z,94.90
2018-11-27T15:55:33.582Z,94.70
2018-11-27T15:58:05.044Z,94.40
2018-11-27T16:00:33.961Z,94.40
2018-11-27T16:03:03.024Z,94.30
2018-11-27T16:05:31.820Z,94.20
2018-11-27T16:08:00.620Z,94.20
2018-11-27T16:10:29.728Z,94.20
2018-11-27T16:12:58.867Z,94.30
2018-11-27T16:15:27.975Z,94.40
2018-11-27T16:17:57.407Z,94.30
2018-11-27T16:20:26.651Z,94.40
2018-11-27T16:22:55.828Z,94.40
2018-11-27T16:25:25.813Z,94.40
2018-11-27T16:27:54.888Z,94.30
2018-11-27T16:30:24.958Z,94.40
2018-11-27T16:32:54.116Z,94.50
2018-11-27T16:35:23.077Z,94.50
2018-11-27T16:37:53.961Z,94.50
2018-11-27T16:40:27.687Z,94.20
2018-11-27T16:42:56.577Z,94.20
2018-11-27T16:45:25.527Z,94.20
2018-11-27T16:47:55.531Z,94.20
2018-11-27T16:50:24.745Z,94.30
2018-11-27T16:52:53.807Z,94.20
2018-11-27T16:55:23.843Z,94.20
2018-11-27T16:57:54.835Z,94.20
2018-11-27T17:00:28.414Z,94.10
2018-11-27T17:03:02.828Z,94.40
2018-11-27T17:05:37.423Z,94.50
2018-11-27T17:08:06.942Z,94.30
2018-11-27T17:10:36.933Z,94.00
2018-11-27T17:13:07.651Z,93.90
2018-11-27T17:15:36.985Z,94.00
2018-11-27T17:18:06.156Z,94.10
2018-11-27T17:20:37.412Z,94.00
2018-11-27T17:23:11.639Z,93.90
2018-11-27T17:25:41.336Z,93.70
2018-11-27T17:28:17.886Z,93.70
2018-11-27T17:30:49.727Z,93.80
2018-11-27T17:34:22.818Z,94.00
2018-11-27T17:36:51.726Z,94.30
2018-11-27T17:39:21.098Z,94.20
2018-11-27T17:41:50.543Z,94.30
2018-11-27T17:44:19.494Z,94.40
2018-11-27T17:46:50.660Z,94.30
2018-11-27T17:49:20.135Z,94.70
2018-11-27T17:51:49.474Z,94.50
2018-11-27T17:54:18.427Z,94.90
2018-11-27T17:56:47.484Z,94.60
2018-11-27T17:59:16.707Z,94.70
2018-11-27T18:01:46.623Z,94.70
2018-11-27T18:04:15.787Z,94.60
2018-11-27T18:06:45.076Z,94.80
2018-11-27T18:09:14.242Z,95.00
2018-11-27T18:11:43.120Z,94.90
2018-11-27T18:14:12.543Z,94.90
2018-11-27T18:16:41.399Z,95.00
2018-11-27T18:19:10.275Z,95.10
2018-11-27T18:21:39.367Z,95.00
2018-11-27T18:24:08.251Z,95.20
2018-11-27T18:26:37.188Z,95.20
2018-11-27T18:29:06.448Z,95.20
2018-11-27T18:31:35.403Z,95.40
2018-11-27T18:34:05.727Z,95.40
2018-11-27T18:36:34.600Z,95.50
2018-11-27T18:39:05.456Z,95.60
2018-11-27T18:41:34.319Z,95.30
2018-11-27T18:44:03.869Z,95.40
2018-11-27T18:46:32.740Z,95.30
2018-11-27T18:49:01.725Z,95.50
2018-11-27T18:51:31.545Z,95.80
2018-11-27T18:54:00.419Z,95.60
2018-11-27T18:56:29.583Z,95.70
2018-11-27T18:58:58.634Z,95.50
2018-11-27T19:01:27.547Z,95.40
2018-11-27T19:03:56.366Z,95.60
2018-11-27T19:06:25.445Z,95.60
2018-11-27T19:08:54.342Z,95.40
2018-11-27T19:11:23.313Z,95.70
2018-11-27T19:13:52.272Z,95.50
2018-11-27T19:16:21.459Z,95.50
2018-11-27T19:18:50.231Z,95.80
2018-11-27T19:21:19.401Z,95.60
2018-11-27T19:23:48.216Z,95.50
2018-11-27T19:26:17.120Z,95.70
2018-11-27T19:28:46.313Z,95.70
2018-11-27T19:31:15.355Z,95.80
2018-11-27T19:33:44.192Z,95.90
2018-11-27T19:36:13.125Z,95.90
2018-11-27T19:38:42.292Z,95.90
2018-11-27T19:41:11.363Z,95.80
2018-11-27T19:43:40.373Z,95.70
2018-11-27T19:46:09.568Z,95.40
2018-11-27T19:48:38.831Z,95.50
2018-11-27T19:51:08.149Z,95.60
2018-11-27T19:53:37.139Z,95.80
2018-11-27T19:56:06.612Z,95.70
2018-11-27T19:58:36.497Z,95.60
2018-11-27T20:01:06.287Z,95.70
2018-11-27T20:03:35.223Z,95.80
2018-11-27T20:06:05.537Z,95.50
2018-11-27T20:08:34.441Z,95.70
2018-11-27T20:11:03.807Z,95.60
2018-11-27T20:13:33.166Z,96.10
2018-11-27T20:16:02.401Z,96.00
2018-11-27T20:18:31.389Z,96.30
2018-11-27T20:21:00.979Z,96.10
2018-11-27T20:23:30.653Z,96.20
2018-11-27T20:26:01.431Z,96.20
2018-11-27T20:28:30.488Z,96.00
2018-11-27T20:31:00.307Z,96.20
2018-11-27T20:33:29.471Z,95.80
2018-11-27T20:35:58.464Z,95.70
2018-11-27T20:38:27.936Z,96.00
2018-11-27T20:40:57.043Z,95.80
2018-11-27T20:43:26.408Z,96.00
2018-11-27T20:45:55.738Z,95.90
2018-11-27T20:48:25.508Z,95.90
2018-11-27T20:50:55.064Z,95.60
2018-11-27T20:53:24.418Z,95.70
2018-11-27T20:55:53.927Z,95.80
2018-11-27T20:58:22.858Z,96.00
2018-11-27T21:00:52.794Z,95.90
2018-11-27T21:03:22.104Z,96.00
2018-11-27T21:05:51.197Z,96.10
2018-11-27T21:08:21.370Z,96.10
2018-11-27T21:10:50.648Z,96.20
2018-11-27T21:13:19.619Z,96.10
2018-11-27T21:15:48.560Z,95.90
2018-11-27T21:18:17.434Z,96.20
2018-11-27T21:20:46.541Z,96.40
2018-11-27T21:23:15.253Z,96.50
2018-11-27T21:25:44.239Z,96.50
2018-11-27T21:28:15.063Z,96.20
2018-11-27T21:30:46.390Z,96.10
2018-11-27T21:33:15.799Z,96.00
2018-11-27T21:35:47.012Z,95.90
2018-11-27T21:38:16.719Z,95.90
2018-11-27T21:40:46.134Z,96.00
2018-11-27T21:43:15.321Z,96.10
2018-11-27T21:45:44.752Z,96.20
2018-11-27T21:48:14.274Z,96.60
2018-11-27T21:50:44.099Z,96.30
2018-11-27T21:53:13.351Z,96.50
2018-11-27T21:55:43.454Z,96.50
2018-11-27T21:58:12.775Z,96.20
2018-11-27T22:00:42.657Z,96.70
2018-11-27T22:03:12.398Z,96.70
2018-11-27T22:05:41.232Z,96.30
2018-11-27T22:08:10.284Z,96.30
2018-11-27T22:10:39.268Z,96.30
2018-11-27T22:13:10.699Z,96.30
2018-11-27T22:15:40.581Z,96.40
2018-11-27T22:18:11.090Z,96.50
2018-11-27T22:20:39.971Z,96.50
2018-11-27T22:23:09.247Z,96.50
2018-11-27T22:25:38.244Z,96.70
2018-11-27T22:28:08.427Z,96.30
2018-11-27T22:30:38.269Z,96.20
2018-11-27T22:33:08.315Z,96.30
2018-11-27T22:35:37.712Z,96.30
2018-11-27T22:38:07.629Z,96.40
2018-11-27T22:40:37.461Z,96.60
2018-11-27T22:43:07.385Z,96.30
2018-11-27T22:45:39.211Z,96.60
2018-11-27T22:48:09.695Z,96.70
2018-11-27T22:50:38.628Z,96.60
2018-11-27T22:53:08.900Z,96.60
2018-11-27T22:55:38.133Z,96.60
2018-11-27T22:58:08.832Z,96.60
2018-11-27T23:00:43.132Z,96.60
2018-11-27T23:03:12.353Z,96.60
2018-11-27T23:05:41.693Z,96.30
2018-11-27T23:08:10.967Z,96.30
2018-11-27T23:10:41.507Z,96.30
2018-11-27T23:13:10.737Z,96.10
2018-11-27T23:15:40.147Z,96.20
2018-11-27T23:18:09.148Z,96.10
2018-11-27T23:20:38.143Z,96.10
2018-11-27T23:23:07.059Z,96.10
2018-11-27T23:25:36.808Z,96.00
2018-11-27T23:28:05.991Z,95.80
2018-11-27T23:30:35.460Z,95.90
2018-11-27T23:33:04.736Z,95.80
2018-11-27T23:35:33.793Z,95.70
2018-11-27T23:38:03.281Z,96.00
2018-11-27T23:40:32.285Z,95.90
2018-11-27T23:43:01.367Z,95.90
2018-11-27T23:45:30.529Z,95.90
2018-11-27T23:48:00.026Z,96.00
2018-11-27T23:50:29.143Z,96.00
2018-11-27T23:52:58.697Z,95.80
2018-11-27T23:55:27.727Z,95.80
2018-11-27T23:57:57.388Z,95.70
